Aérodrome :
LOGIN :

S'inscrire | Disclaimer

   EN    FR    IT 

 










Légende :    VFR   VFR Marginal   IFR   IFR Intensif   IFR Très Intensif
Visi : 
Plafond : 
>= 8 km
>= 3000ft
5 à 8 km
1000 à 3000 ft
1500m à 5 km
500 à 1000 ft
800 à 1500m
200 à 500 ft
< 800m
< 200 ft
Symboles :   Orages  Brouillard  Fortes neiges  Fortes précipitations  Vent > 20 kt
SIGMETs :   Divers  Orages  Givrage  Turbulence  Onde Orograph.  Cendres Volcan.






- Altitude de l'aérodrome : 412 ft
- Code IATA : ORE


LFOJ - Orleans

DERNIER METAR :
  • 250200Z AUTO 02006KT CAVOK 16/14 Q1013 NOSIG

METARs EXPIRÉS :
  • 250130Z AUTO 03006KT CAVOK 16/14 Q1014 NOSIG
  • 250100Z AUTO 03006KT CAVOK 16/14 Q1014 NOSIG
  • 250030Z AUTO 02006KT CAVOK 17/14 Q1014 NOSIG
  • 250000Z AUTO 02004KT CAVOK 17/14 Q1014 NOSIG
  • 242330Z AUTO 02003KT CAVOK 17/15 Q1015 NOSIG
  • 242300Z AUTO 03005KT CAVOK 17/15 Q1015 NOSIG
  • 242230Z AUTO 03005KT CAVOK 18/15 Q1015 NOSIG
  • 242200Z AUTO 03005KT CAVOK 19/15 Q1015 NOSIG
  • 242130Z AUTO 03003KT CAVOK 19/16 Q1015 NOSIG

TAF TAF LFOJ
Valide du 24 à 21h jusqu'au 25 à 21h UTC


242000Z 2421/2521 04005KT CAVOK TX30/2514Z TN14/2504Z



MET'MAP, la Météo Aéronautique d'un coup d'oeil ! - Copyright ORBIFLY Décembre 2007 - Disclaimer

ORBIFLY MET'MAP TEAM :

Programmation & Développement : Alexandra Zaïnal
Sur une idée originale de : Baudouin d'Aumeries
Soutien technique & logistique : Manuel Goepfert
Assistance : Marc-Olivier Méhu




SOURCES & CREDITS :

   NOAA